createdAt,value
2022-09-14T00:02:30.775Z,0.65
2022-09-14T00:05:36.545Z,0.60
2022-09-14T00:08:43.799Z,0.57
2022-09-14T00:11:48.865Z,0.60
2022-09-14T00:14:53.430Z,0.60
2022-09-14T00:17:58.047Z,0.77
2022-09-14T00:21:09.029Z,0.80
2022-09-14T00:24:13.846Z,0.70
2022-09-14T00:27:18.781Z,0.50
2022-09-14T00:30:24.229Z,0.70
2022-09-14T00:33:29.304Z,0.68
2022-09-14T00:36:42.957Z,0.70
2022-09-14T00:39:48.548Z,0.57
2022-09-14T00:42:53.258Z,0.60
2022-09-14T00:46:05.071Z,0.60
2022-09-14T00:49:32.588Z,0.70
2022-09-14T00:52:41.083Z,0.55
2022-09-14T00:55:46.088Z,0.50
2022-09-14T00:58:53.413Z,0.65
2022-09-14T01:01:58.089Z,0.50
2022-09-14T01:05:03.502Z,0.60
2022-09-14T01:08:43.569Z,0.73
2022-09-14T01:12:39.467Z,0.50
2022-09-14T01:15:56.429Z,0.70
2022-09-14T01:19:15.390Z,0.57
2022-09-14T01:22:30.601Z,0.60
2022-09-14T01:25:52.808Z,0.70
2022-09-14T01:29:14.170Z,0.45
2022-09-14T01:32:30.379Z,0.65
2022-09-14T01:35:50.151Z,0.70
2022-09-14T01:38:56.100Z,0.70
2022-09-14T01:42:02.020Z,0.63
2022-09-14T01:45:11.378Z,0.82
2022-09-14T01:48:22.096Z,0.60
2022-09-14T01:51:47.825Z,0.60
2022-09-14T01:55:07.571Z,0.80
2022-09-14T01:58:41.712Z,0.63
2022-09-14T02:02:11.864Z,0.50
2022-09-14T02:05:57.046Z,0.60
2022-09-14T02:09:04.151Z,0.60
2022-09-14T02:12:09.305Z,0.82
2022-09-14T02:15:15.345Z,0.50
2022-09-14T02:18:20.805Z,0.60
2022-09-14T02:21:32.104Z,0.50
2022-09-14T02:24:37.051Z,0.70
2022-09-14T02:27:41.582Z,0.60
2022-09-14T02:31:37.449Z,0.70
2022-09-14T02:35:18.694Z,0.70
2022-09-14T02:38:36.010Z,0.50
2022-09-14T02:41:51.456Z,0.90
2022-09-14T02:44:59.373Z,0.50
2022-09-14T02:48:32.122Z,0.50
2022-09-14T02:52:18.582Z,0.60
2022-09-14T02:55:26.308Z,0.50
2022-09-14T02:58:40.377Z,0.60
2022-09-14T03:01:44.994Z,0.60
2022-09-14T03:04:49.824Z,0.82
2022-09-14T03:07:55.060Z,0.60
2022-09-14T03:10:59.784Z,0.38
2022-09-14T03:14:04.015Z,0.50
2022-09-14T03:17:08.351Z,0.47
2022-09-14T03:20:26.392Z,0.50
2022-09-14T03:23:34.888Z,0.52
2022-09-14T03:26:39.908Z,0.52
2022-09-14T03:29:44.607Z,0.57
2022-09-14T03:32:50.228Z,0.47
2022-09-14T03:35:54.463Z,0.68
2022-09-14T03:39:02.197Z,0.70
2022-09-14T03:42:07.076Z,0.65
2022-09-14T03:45:13.137Z,0.60
2022-09-14T03:48:18.090Z,0.70
2022-09-14T03:51:23.748Z,0.73
2022-09-14T03:54:28.769Z,0.60
2022-09-14T03:57:33.858Z,0.50
2022-09-14T04:00:40.318Z,0.50
2022-09-14T04:03:45.711Z,0.40
2022-09-14T04:06:50.577Z,0.40
2022-09-14T04:09:56.220Z,0.45
2022-09-14T04:13:02.016Z,0.40
2022-09-14T04:16:06.834Z,0.50
2022-09-14T04:19:13.144Z,0.50
2022-09-14T04:22:17.807Z,0.40
2022-09-14T04:25:23.292Z,0.50
2022-09-14T04:28:28.042Z,0.40
2022-09-14T04:31:33.680Z,0.50
2022-09-14T04:34:38.446Z,0.50
2022-09-14T04:37:42.967Z,0.50
2022-09-14T04:40:47.259Z,0.60
2022-09-14T04:43:53.098Z,0.40
2022-09-14T04:46:58.714Z,0.43
2022-09-14T04:50:03.949Z,0.50
2022-09-14T04:53:08.661Z,0.50
2022-09-14T04:56:14.903Z,0.50
2022-09-14T04:59:19.330Z,0.40
2022-09-14T05:02:24.079Z,0.50
2022-09-14T05:05:28.712Z,0.52
2022-09-14T05:08:35.362Z,0.57
2022-09-14T05:11:40.963Z,0.50
2022-09-14T05:14:45.057Z,0.50
2022-09-14T05:17:49.407Z,0.50
2022-09-14T05:20:54.180Z,0.60
2022-09-14T05:24:20.653Z,0.50
2022-09-14T05:27:25.099Z,0.50
2022-09-14T05:30:29.936Z,0.55
2022-09-14T05:33:35.875Z,0.47
2022-09-14T05:36:41.327Z,0.50
2022-09-14T05:39:45.982Z,0.50
2022-09-14T05:42:50.910Z,0.52
2022-09-14T05:45:56.390Z,0.40
2022-09-14T05:49:01.009Z,0.50
2022-09-14T05:52:05.862Z,0.50
2022-09-14T05:55:10.631Z,0.40
2022-09-14T05:58:15.094Z,0.63
2022-09-14T06:01:24.368Z,0.43
2022-09-14T06:04:28.978Z,0.50
2022-09-14T06:07:33.959Z,0.50
2022-09-14T06:10:39.158Z,0.52
2022-09-14T06:13:44.735Z,0.47
2022-09-14T06:16:49.217Z,0.50
2022-09-14T06:19:54.044Z,0.50
2022-09-14T06:22:58.311Z,0.90
2022-09-14T06:26:05.724Z,0.65
2022-09-14T06:29:10.659Z,0.63
2022-09-14T06:32:15.337Z,0.43
2022-09-14T06:35:19.918Z,0.50
2022-09-14T06:38:25.632Z,0.60
2022-09-14T06:41:32.739Z,0.80
2022-09-14T06:44:37.247Z,0.60
2022-09-14T06:47:41.958Z,0.70
2022-09-14T06:50:46.747Z,0.60
2022-09-14T06:53:51.925Z,0.60
2022-09-14T06:56:56.641Z,0.50
2022-09-14T07:00:01.924Z,0.57
2022-09-14T07:03:06.681Z,0.47
2022-09-14T07:06:15.865Z,0.60
2022-09-14T07:09:20.757Z,0.40
2022-09-14T07:12:25.275Z,0.50
2022-09-14T07:15:29.741Z,0.65
2022-09-14T07:18:35.975Z,0.65
2022-09-14T07:21:42.228Z,0.60
2022-09-14T07:24:46.503Z,0.70
2022-09-14T07:27:50.930Z,0.50
2022-09-14T07:30:59.023Z,0.50
2022-09-14T07:34:05.967Z,0.50
2022-09-14T07:37:11.601Z,0.57
2022-09-14T07:40:16.653Z,0.70
2022-09-14T07:43:21.747Z,0.40
2022-09-14T07:46:28.355Z,0.70
2022-09-14T07:49:32.893Z,0.47
2022-09-14T07:52:38.862Z,0.63
2022-09-14T07:55:43.270Z,0.40
2022-09-14T07:58:53.939Z,0.50
2022-09-14T08:01:59.159Z,0.45
2022-09-14T08:05:04.065Z,0.60
2022-09-14T08:08:08.714Z,0.60
2022-09-14T08:11:22.185Z,0.50
2022-09-14T08:14:26.642Z,0.50
2022-09-14T08:17:31.320Z,0.60
2022-09-14T08:20:35.636Z,0.50
2022-09-14T08:23:41.145Z,0.60
2022-09-14T08:26:46.941Z,0.55
2022-09-14T08:29:51.654Z,0.60
2022-09-14T08:32:58.953Z,0.60
2022-09-14T08:36:12.532Z,0.50
2022-09-14T08:39:18.142Z,0.43
2022-09-14T08:42:25.073Z,0.30
2022-09-14T08:45:29.758Z,0.40
2022-09-14T08:48:39.018Z,0.50
2022-09-14T08:51:43.273Z,0.40
2022-09-14T08:54:53.576Z,0.30
2022-09-14T08:58:10.450Z,0.47
2022-09-14T09:01:52.697Z,0.50
2022-09-14T09:05:00.752Z,0.60
2022-09-14T09:08:39.183Z,0.40
2022-09-14T09:11:48.529Z,0.40
2022-09-14T09:15:00.440Z,0.50
2022-09-14T09:18:22.152Z,0.40
2022-09-14T09:21:38.783Z,0.38
2022-09-14T09:24:50.446Z,0.40
2022-09-14T09:28:03.216Z,0.40
2022-09-14T09:31:14.633Z,0.60
2022-09-14T09:34:48.999Z,0.55
2022-09-14T09:38:17.436Z,0.50
2022-09-14T09:41:27.974Z,0.40
2022-09-14T09:45:03.428Z,0.50
2022-09-14T09:48:10.660Z,0.47
2022-09-14T09:51:30.917Z,0.40
2022-09-14T09:54:37.770Z,0.57
2022-09-14T09:57:42.059Z,0.40
2022-09-14T10:00:58.137Z,0.60
2022-09-14T10:04:28.235Z,0.60
2022-09-14T10:07:56.268Z,0.60
2022-09-14T10:11:03.496Z,0.50
2022-09-14T10:14:42.039Z,0.50
2022-09-14T10:18:11.781Z,0.70
2022-09-14T10:21:23.304Z,0.60
2022-09-14T10:24:27.933Z,0.68
2022-09-14T10:28:00.962Z,0.73
2022-09-14T10:31:14.712Z,0.60
2022-09-14T10:34:20.938Z,0.50
2022-09-14T10:37:34.286Z,0.80
2022-09-14T10:40:44.111Z,0.70
2022-09-14T10:44:25.822Z,0.65
2022-09-14T10:48:26.092Z,0.80
2022-09-14T10:52:08.441Z,0.50
2022-09-14T10:55:21.283Z,0.68
2022-09-14T10:58:50.541Z,0.80
2022-09-14T11:02:17.872Z,0.90
2022-09-14T11:05:38.022Z,0.60
2022-09-14T11:08:50.944Z,0.95
2022-09-14T11:12:25.047Z,0.77
2022-09-14T11:16:06.022Z,0.65
2022-09-14T11:19:57.647Z,0.80
2022-09-14T11:23:17.714Z,0.63
2022-09-14T11:26:42.142Z,0.75
2022-09-14T11:30:18.809Z,1.15
2022-09-14T11:33:39.246Z,0.82
2022-09-14T11:36:52.661Z,1.00
2022-09-14T11:40:24.937Z,1.08
2022-09-14T11:43:48.095Z,0.85
2022-09-14T11:47:13.369Z,0.73
2022-09-14T11:50:28.402Z,1.10
2022-09-14T11:53:33.708Z,0.70
2022-09-14T11:56:38.280Z,0.88
2022-09-14T11:59:44.359Z,0.80
2022-09-14T12:03:20.187Z,0.90
2022-09-14T12:06:30.689Z,1.00
2022-09-14T12:09:43.139Z,1.05
2022-09-14T12:12:56.208Z,1.10
2022-09-14T12:16:10.505Z,0.85
2022-09-14T12:19:18.689Z,1.20
2022-09-14T12:22:37.978Z,1.00
2022-09-14T12:26:06.135Z,1.00
2022-09-14T12:29:34.017Z,1.58
2022-09-14T12:32:43.366Z,0.90
2022-09-14T12:35:48.067Z,0.75
2022-09-14T12:38:53.207Z,0.80
2022-09-14T12:42:26.039Z,0.70
2022-09-14T12:46:00.465Z,0.82
2022-09-14T12:49:32.426Z,0.65
2022-09-14T12:53:11.223Z,0.50
2022-09-14T12:56:27.165Z,0.77
2022-09-14T13:00:09.795Z,0.57
2022-09-14T13:03:35.982Z,0.70
2022-09-14T13:06:45.301Z,0.50
2022-09-14T13:09:54.955Z,0.70
2022-09-14T13:13:02.260Z,0.77
2022-09-14T13:16:08.602Z,0.60
2022-09-14T13:19:28.165Z,0.80
2022-09-14T13:22:34.127Z,0.70
2022-09-14T13:25:39.243Z,0.50
2022-09-14T13:28:48.513Z,0.60
2022-09-14T13:31:57.570Z,0.75
2022-09-14T13:35:06.269Z,0.70
2022-09-14T13:38:23.326Z,0.57
2022-09-14T13:41:29.909Z,0.50
2022-09-14T13:44:45.485Z,0.60
2022-09-14T13:47:51.347Z,0.80
2022-09-14T13:50:56.341Z,0.43
2022-09-14T13:54:24.099Z,0.60
2022-09-14T13:57:29.294Z,0.50
2022-09-14T14:01:03.815Z,0.55
2022-09-14T14:04:35.581Z,0.40
2022-09-14T14:07:40.410Z,0.60
2022-09-14T14:10:47.860Z,0.60
2022-09-14T14:13:52.880Z,0.52
2022-09-14T14:17:29.865Z,0.70
2022-09-14T14:20:39.047Z,0.50
2022-09-14T14:24:02.820Z,0.60
2022-09-14T14:27:41.212Z,0.50
2022-09-14T14:30:46.302Z,0.63
2022-09-14T14:33:53.528Z,0.60
2022-09-14T14:36:58.668Z,0.60
2022-09-14T14:40:03.877Z,0.70
2022-09-14T14:43:12.292Z,0.60
2022-09-14T14:46:17.262Z,0.50
2022-09-14T14:49:23.675Z,0.63
2022-09-14T14:52:28.215Z,0.40
2022-09-14T14:55:33.760Z,0.52
2022-09-14T14:58:47.220Z,0.52
2022-09-14T15:01:53.813Z,0.47
2022-09-14T15:04:58.336Z,0.40
2022-09-14T15:08:03.196Z,0.65
2022-09-14T15:11:18.453Z,0.60
2022-09-14T15:14:27.288Z,0.60
2022-09-14T15:17:31.862Z,0.60
2022-09-14T15:20:37.025Z,0.70
2022-09-14T15:23:41.577Z,0.50
2022-09-14T15:26:46.204Z,0.55
2022-09-14T15:29:51.037Z,0.52
2022-09-14T15:32:55.935Z,0.65
2022-09-14T15:36:01.212Z,0.50
2022-09-14T15:39:07.576Z,0.50
2022-09-14T15:42:12.364Z,0.70
2022-09-14T15:45:17.797Z,0.40
2022-09-14T15:48:22.739Z,0.50
2022-09-14T15:51:27.813Z,0.50
2022-09-14T15:54:37.130Z,0.55
2022-09-14T15:57:41.880Z,0.60
2022-09-14T16:00:46.812Z,0.45
2022-09-14T16:04:01.008Z,0.65
2022-09-14T16:07:09.966Z,0.57
2022-09-14T16:10:14.712Z,0.50
2022-09-14T16:13:19.227Z,0.63
2022-09-14T16:16:24.453Z,0.43
2022-09-14T16:19:29.388Z,0.60
2022-09-14T16:22:33.979Z,0.50
2022-09-14T16:25:42.160Z,0.70
2022-09-14T16:28:49.002Z,0.55
2022-09-14T16:31:54.321Z,0.57
2022-09-14T16:34:59.220Z,0.50
2022-09-14T16:38:04.693Z,0.68
2022-09-14T16:41:10.653Z,0.70
2022-09-14T16:44:27.773Z,0.40
2022-09-14T16:47:32.715Z,0.60
2022-09-14T16:50:37.533Z,0.40
2022-09-14T16:53:45.672Z,0.47
2022-09-14T16:56:50.808Z,0.40
2022-09-14T16:59:56.009Z,0.70
2022-09-14T17:03:00.893Z,0.65
2022-09-14T17:06:10.233Z,0.55
2022-09-14T17:09:19.415Z,0.43
2022-09-14T17:12:24.519Z,0.80
2022-09-14T17:15:31.330Z,0.50
2022-09-14T17:18:38.310Z,0.50
2022-09-14T17:21:45.440Z,0.73
2022-09-14T17:24:49.818Z,0.93
2022-09-14T17:27:54.344Z,0.50
2022-09-14T17:31:02.106Z,0.57
2022-09-14T17:34:10.791Z,0.50
2022-09-14T17:37:15.743Z,0.57
2022-09-14T17:40:20.394Z,0.60
2022-09-14T17:43:25.135Z,0.60
2022-09-14T17:46:30.940Z,0.70
2022-09-14T17:49:35.391Z,0.68
2022-09-14T17:52:40.303Z,0.80
2022-09-14T17:55:44.978Z,0.70
2022-09-14T17:59:00.296Z,0.68
2022-09-14T18:02:05.170Z,0.57
2022-09-14T18:05:10.349Z,0.68
2022-09-14T18:08:14.734Z,0.60
2022-09-14T18:11:20.104Z,0.70
2022-09-14T18:14:25.853Z,0.80
2022-09-14T18:17:30.612Z,0.70
2022-09-14T18:20:37.319Z,0.70
2022-09-14T18:23:41.759Z,0.73
2022-09-14T18:26:48.587Z,0.75
2022-09-14T18:29:52.831Z,0.75
2022-09-14T18:32:57.774Z,0.88
2022-09-14T18:36:03.721Z,0.70
2022-09-14T18:39:08.271Z,0.77
2022-09-14T18:42:13.122Z,0.80
2022-09-14T18:45:18.098Z,0.80
2022-09-14T18:48:24.716Z,0.70
2022-09-14T18:51:31.609Z,0.90
2022-09-14T18:54:36.394Z,0.70
2022-09-14T18:57:44.634Z,0.88
2022-09-14T19:00:49.194Z,0.80
2022-09-14T19:03:56.230Z,0.70
2022-09-14T19:07:01.188Z,0.80
2022-09-14T19:10:11.645Z,0.88
2022-09-14T19:13:16.768Z,0.80
2022-09-14T19:16:21.281Z,0.77
2022-09-14T19:19:26.342Z,0.80
2022-09-14T19:22:30.814Z,0.80
2022-09-14T19:25:40.267Z,0.80
2022-09-14T19:28:45.514Z,1.08
2022-09-14T19:31:52.082Z,0.80
2022-09-14T19:34:56.485Z,0.90
2022-09-14T19:38:01.338Z,0.80
2022-09-14T19:41:07.110Z,1.20
2022-09-14T19:44:12.015Z,0.82
2022-09-14T19:47:16.499Z,1.00
2022-09-14T19:50:21.233Z,0.88
2022-09-14T19:53:26.486Z,0.90
2022-09-14T19:56:32.880Z,0.90
2022-09-14T19:59:38.293Z,0.95
2022-09-14T20:02:45.916Z,0.80
2022-09-14T20:06:08.273Z,0.93
2022-09-14T20:09:22.886Z,1.20
2022-09-14T20:12:29.534Z,0.70
2022-09-14T20:15:34.172Z,0.90
2022-09-14T20:18:40.659Z,1.10
2022-09-14T20:21:46.773Z,0.95
2022-09-14T20:24:51.471Z,1.00
2022-09-14T20:27:56.380Z,1.10
2022-09-14T20:31:07.206Z,1.58
2022-09-14T20:34:13.287Z,1.67
2022-09-14T20:37:17.799Z,1.33
2022-09-14T20:40:22.375Z,1.38
2022-09-14T20:43:30.286Z,1.17
2022-09-14T20:46:40.352Z,1.00
2022-09-14T20:49:45.413Z,1.10
2022-09-14T20:52:49.860Z,0.90
2022-09-14T20:56:02.499Z,1.13
2022-09-14T20:59:12.606Z,1.38
2022-09-14T21:02:17.432Z,1.20
2022-09-14T21:05:21.903Z,0.98
2022-09-14T21:08:27.829Z,1.00
2022-09-14T21:11:32.904Z,0.80
2022-09-14T21:14:37.459Z,0.93
2022-09-14T21:17:41.813Z,0.98
2022-09-14T21:20:46.699Z,0.70
2022-09-14T21:23:53.512Z,0.80
2022-09-14T21:26:58.008Z,0.70
2022-09-14T21:30:03.085Z,0.80
2022-09-14T21:33:07.741Z,0.90
2022-09-14T21:36:20.269Z,0.80
2022-09-14T21:39:27.131Z,1.00
2022-09-14T21:42:31.605Z,0.80
2022-09-14T21:45:43.424Z,1.10
2022-09-14T21:48:48.186Z,0.88
2022-09-14T21:51:52.830Z,1.00
2022-09-14T21:54:58.220Z,0.68
2022-09-14T21:58:02.911Z,0.90
2022-09-14T22:01:08.304Z,0.90
2022-09-14T22:04:16.701Z,1.00
2022-09-14T22:07:21.888Z,0.73
2022-09-14T22:10:27.052Z,1.15
2022-09-14T22:13:31.881Z,1.27
2022-09-14T22:16:38.165Z,1.38
2022-09-14T22:19:42.880Z,1.15
2022-09-14T22:22:47.653Z,1.50
2022-09-14T22:25:52.869Z,0.95
2022-09-14T22:28:58.963Z,1.20
2022-09-14T22:32:08.174Z,1.25
2022-09-14T22:35:12.919Z,1.00
2022-09-14T22:38:17.267Z,1.00
2022-09-14T22:41:22.720Z,1.02
2022-09-14T22:44:27.306Z,1.08
2022-09-14T22:47:31.885Z,1.00
2022-09-14T22:50:36.611Z,0.93
2022-09-14T22:53:41.792Z,1.10
2022-09-14T22:56:46.049Z,1.00
2022-09-14T22:59:50.775Z,1.10
2022-09-14T23:02:55.653Z,1.00
2022-09-14T23:06:00.344Z,0.90
2022-09-14T23:09:07.464Z,1.20
2022-09-14T23:12:11.965Z,0.70
2022-09-14T23:15:16.895Z,1.00
2022-09-14T23:18:21.393Z,1.17
2022-09-14T23:21:27.416Z,0.95
2022-09-14T23:24:32.177Z,1.02
2022-09-14T23:27:37.238Z,1.10
2022-09-14T23:30:42.106Z,0.95
2022-09-14T23:33:53.693Z,1.00
2022-09-14T23:36:58.323Z,0.90
2022-09-14T23:40:03.967Z,1.13
2022-09-14T23:43:08.713Z,1.00
2022-09-14T23:46:13.928Z,1.27
2022-09-14T23:49:18.772Z,1.10
2022-09-14T23:52:23.098Z,0.98
2022-09-14T23:55:28.134Z,1.00
2022-09-14T23:58:32.686Z,1.00
